Portada
METAR-TAF:

METAR-TAF

Aeroports :

Buixehr, Iran

latitud: 28-59N, longitud: 050-50E, altitud: 19 m

Observació

L'informe es va fer fa 41 minuts, a les 01:00 UTC
Vent 20 kt del Nord/Nord-Oest
Temperatura 30°C
Humitat 52%
Pressió 998 hPa
Visibilitat: 6000 m

METAR: OIBB 130100Z 33020KT 6000 NSC 30/19 Q0998 A2947

Hora: 06:11 (01:41 UTC)

Pronòstic

L'informe es va fer fa 2 hores i 41 minuts, a les 23:00 UTC
Pronòstic vàlid del 13 a les 00 UTC al 13 a les 09 UTC
Vent 16 kt del Nord/Nord-Oest
Visibilitat: 4000 m
Temporalment
l' 13 a les 00 UTC al 13 a les 06 UTC
Vent 20 kt del Nord/Nord-Oest amb ràfegues de 30 kt
Visibilitat: 2000 m

TAF: OIBB 122300Z 1300/1309 33016KT 4000 SA/DU NSC TEMPO 1300/1306 33020G30KT 2000 SA/DU

Observacions i pronòstics meteorològics de més de 4000 aeroports (METAR i TAF).

Les estacions disponibles són els punts grocs i vermells al mapa.

Posi el ratolí al punt desitjat per veure el nom de l'estació.

Feu clic per veure les observacions i els pronòstics meteorològics.

Per canviar el mapa: feu clic els botons verds amb una creu de color negre per apropar; al botó verd amb un guió per allunyar la imatge; o en les fletxes verdes per a mapes adjacents.


METAR-TAF: